TAF KBMI
KBMI 280520Z 2806/2906 32012KT P6SM SKC FM281400 31015G24KT P6SM SCT200 FM282300 30008KT P6SM SCT200=
METAR KBMI
WC KBMI
WS KBMI
WV KBMI